sensor_id;sensor_type;location;lat;lon;timestamp;P1;durP1;ratioP1;P2;durP2;ratioP2
12267;SDS011;6196;48.398;11.736;2023-09-07T00:02:10;4.07;;;3.63;;
12267;SDS011;6196;48.398;11.736;2023-09-07T00:04:38;4.33;;;3.93;;
12267;SDS011;6196;48.398;11.736;2023-09-07T00:07:05;4.97;;;3.77;;
12267;SDS011;6196;48.398;11.736;2023-09-07T00:09:32;6.73;;;3.90;;
12267;SDS011;6196;48.398;11.736;2023-09-07T00:11:59;5.00;;;3.80;;
12267;SDS011;6196;48.398;11.736;2023-09-07T00:14:26;4.53;;;4.13;;
12267;SDS011;6196;48.398;11.736;2023-09-07T00:16:53;4.47;;;4.00;;
12267;SDS011;6196;48.398;11.736;2023-09-07T00:19:20;5.13;;;4.63;;
12267;SDS011;6196;48.398;11.736;2023-09-07T00:21:47;5.40;;;4.53;;
12267;SDS011;6196;48.398;11.736;2023-09-07T00:24:14;4.50;;;4.10;;
12267;SDS011;6196;48.398;11.736;2023-09-07T00:26:42;4.87;;;4.00;;
12267;SDS011;6196;48.398;11.736;2023-09-07T00:29:09;4.27;;;3.87;;
12267;SDS011;6196;48.398;11.736;2023-09-07T00:31:36;4.70;;;4.30;;
12267;SDS011;6196;48.398;11.736;2023-09-07T00:34:03;4.47;;;4.07;;
12267;SDS011;6196;48.398;11.736;2023-09-07T00:36:30;4.80;;;4.00;;
12267;SDS011;6196;48.398;11.736;2023-09-07T00:38:57;6.77;;;4.10;;
12267;SDS011;6196;48.398;11.736;2023-09-07T00:41:24;5.80;;;4.40;;
12267;SDS011;6196;48.398;11.736;2023-09-07T00:43:51;4.97;;;4.50;;
12267;SDS011;6196;48.398;11.736;2023-09-07T00:46:17;5.53;;;4.50;;
12267;SDS011;6196;48.398;11.736;2023-09-07T00:48:46;4.30;;;3.90;;
12267;SDS011;6196;48.398;11.736;2023-09-07T00:51:13;5.27;;;4.20;;
12267;SDS011;6196;48.398;11.736;2023-09-07T00:53:40;5.23;;;4.20;;
12267;SDS011;6196;48.398;11.736;2023-09-07T00:56:07;4.67;;;4.20;;
12267;SDS011;6196;48.398;11.736;2023-09-07T00:58:34;5.17;;;4.23;;
12267;SDS011;6196;48.398;11.736;2023-09-07T01:01:02;4.93;;;4.00;;
12267;SDS011;6196;48.398;11.736;2023-09-07T01:03:30;5.10;;;4.17;;
12267;SDS011;6196;48.398;11.736;2023-09-07T01:06:07;4.90;;;4.50;;
12267;SDS011;6196;48.398;11.736;2023-09-07T01:08:44;5.50;;;4.47;;
12267;SDS011;6196;48.398;11.736;2023-09-07T01:11:16;5.60;;;4.40;;
12267;SDS011;6196;48.398;11.736;2023-09-07T01:13:46;4.67;;;4.27;;
12267;SDS011;6196;48.398;11.736;2023-09-07T01:16:13;5.00;;;4.33;;
12267;SDS011;6196;48.398;11.736;2023-09-07T01:18:41;5.30;;;4.90;;
12267;SDS011;6196;48.398;11.736;2023-09-07T01:21:09;7.50;;;4.70;;
12267;SDS011;6196;48.398;11.736;2023-09-07T01:23:40;4.97;;;4.57;;
12267;SDS011;6196;48.398;11.736;2023-09-07T01:26:08;5.10;;;4.60;;
12267;SDS011;6196;48.398;11.736;2023-09-07T01:28:37;5.27;;;4.70;;
12267;SDS011;6196;48.398;11.736;2023-09-07T01:31:04;5.17;;;4.67;;
12267;SDS011;6196;48.398;11.736;2023-09-07T01:33:32;4.90;;;4.33;;
12267;SDS011;6196;48.398;11.736;2023-09-07T01:35:59;4.87;;;4.30;;
12267;SDS011;6196;48.398;11.736;2023-09-07T01:38:27;5.27;;;4.77;;
12267;SDS011;6196;48.398;11.736;2023-09-07T01:40:54;5.47;;;4.97;;
12267;SDS011;6196;48.398;11.736;2023-09-07T01:43:21;5.40;;;4.40;;
12267;SDS011;6196;48.398;11.736;2023-09-07T01:45:48;5.10;;;4.57;;
12267;SDS011;6196;48.398;11.736;2023-09-07T01:48:15;5.63;;;4.80;;
12267;SDS011;6196;48.398;11.736;2023-09-07T01:50:42;6.10;;;5.17;;
12267;SDS011;6196;48.398;11.736;2023-09-07T01:53:09;4.87;;;4.47;;
12267;SDS011;6196;48.398;11.736;2023-09-07T01:55:36;6.23;;;4.83;;
12267;SDS011;6196;48.398;11.736;2023-09-07T01:58:03;5.10;;;4.57;;
12267;SDS011;6196;48.398;11.736;2023-09-07T02:00:30;5.83;;;5.33;;
12267;SDS011;6196;48.398;11.736;2023-09-07T02:02:59;6.70;;;5.20;;
12267;SDS011;6196;48.398;11.736;2023-09-07T02:05:26;5.13;;;4.73;;
12267;SDS011;6196;48.398;11.736;2023-09-07T02:07:53;5.50;;;4.93;;
12267;SDS011;6196;48.398;11.736;2023-09-07T02:10:20;6.33;;;4.73;;
12267;SDS011;6196;48.398;11.736;2023-09-07T02:12:47;7.47;;;4.77;;
12267;SDS011;6196;48.398;11.736;2023-09-07T02:15:14;5.63;;;5.10;;
12267;SDS011;6196;48.398;11.736;2023-09-07T02:17:41;5.07;;;4.67;;
12267;SDS011;6196;48.398;11.736;2023-09-07T02:20:11;5.60;;;5.10;;
12267;SDS011;6196;48.398;11.736;2023-09-07T02:22:38;5.47;;;4.97;;
12267;SDS011;6196;48.398;11.736;2023-09-07T02:25:06;5.63;;;5.13;;
12267;SDS011;6196;48.398;11.736;2023-09-07T02:27:34;5.10;;;4.70;;
12267;SDS011;6196;48.398;11.736;2023-09-07T02:30:02;5.97;;;4.97;;
12267;SDS011;6196;48.398;11.736;2023-09-07T02:32:31;7.27;;;5.47;;
12267;SDS011;6196;48.398;11.736;2023-09-07T02:34:58;5.50;;;4.97;;
12267;SDS011;6196;48.398;11.736;2023-09-07T02:37:26;5.70;;;5.20;;
12267;SDS011;6196;48.398;11.736;2023-09-07T02:39:52;5.40;;;4.90;;
12267;SDS011;6196;48.398;11.736;2023-09-07T02:42:19;5.77;;;5.17;;
12267;SDS011;6196;48.398;11.736;2023-09-07T02:44:46;6.40;;;5.10;;
12267;SDS011;6196;48.398;11.736;2023-09-07T02:47:13;8.30;;;5.47;;
12267;SDS011;6196;48.398;11.736;2023-09-07T02:49:40;6.77;;;5.10;;
12267;SDS011;6196;48.398;11.736;2023-09-07T02:52:07;5.63;;;4.67;;
12267;SDS011;6196;48.398;11.736;2023-09-07T02:54:34;5.97;;;5.37;;
12267;SDS011;6196;48.398;11.736;2023-09-07T02:57:01;5.70;;;5.10;;
12267;SDS011;6196;48.398;11.736;2023-09-07T02:59:28;5.70;;;5.20;;
12267;SDS011;6196;48.398;11.736;2023-09-07T03:01:55;5.73;;;5.10;;
12267;SDS011;6196;48.398;11.736;2023-09-07T03:04:22;5.23;;;4.73;;
12267;SDS011;6196;48.398;11.736;2023-09-07T03:06:49;6.93;;;5.57;;
12267;SDS011;6196;48.398;11.736;2023-09-07T03:09:16;6.30;;;5.70;;
12267;SDS011;6196;48.398;11.736;2023-09-07T03:11:43;5.90;;;5.40;;
12267;SDS011;6196;48.398;11.736;2023-09-07T03:14:10;6.53;;;5.30;;
12267;SDS011;6196;48.398;11.736;2023-09-07T03:16:37;6.80;;;5.23;;
12267;SDS011;6196;48.398;11.736;2023-09-07T03:19:05;5.37;;;4.83;;
12267;SDS011;6196;48.398;11.736;2023-09-07T03:21:32;7.07;;;5.47;;
12267;SDS011;6196;48.398;11.736;2023-09-07T03:24:00;5.43;;;4.93;;
12267;SDS011;6196;48.398;11.736;2023-09-07T03:26:27;5.80;;;5.20;;
12267;SDS011;6196;48.398;11.736;2023-09-07T03:28:53;5.80;;;5.30;;
12267;SDS011;6196;48.398;11.736;2023-09-07T03:31:20;6.20;;;5.60;;
12267;SDS011;6196;48.398;11.736;2023-09-07T03:33:47;6.00;;;5.40;;
12267;SDS011;6196;48.398;11.736;2023-09-07T03:36:15;5.70;;;5.20;;
12267;SDS011;6196;48.398;11.736;2023-09-07T03:38:43;5.97;;;5.40;;
12267;SDS011;6196;48.398;11.736;2023-09-07T03:41:10;5.70;;;5.20;;
12267;SDS011;6196;48.398;11.736;2023-09-07T03:43:37;6.30;;;5.10;;
12267;SDS011;6196;48.398;11.736;2023-09-07T03:46:04;6.23;;;5.00;;
12267;SDS011;6196;48.398;11.736;2023-09-07T03:48:32;5.70;;;5.20;;
12267;SDS011;6196;48.398;11.736;2023-09-07T03:51:00;5.90;;;5.40;;
12267;SDS011;6196;48.398;11.736;2023-09-07T03:53:27;6.77;;;6.07;;
12267;SDS011;6196;48.398;11.736;2023-09-07T03:55:54;7.10;;;5.63;;
12267;SDS011;6196;48.398;11.736;2023-09-07T03:58:21;6.07;;;5.20;;
12267;SDS011;6196;48.398;11.736;2023-09-07T04:00:48;5.73;;;5.13;;
12267;SDS011;6196;48.398;11.736;2023-09-07T04:03:15;6.20;;;5.37;;
12267;SDS011;6196;48.398;11.736;2023-09-07T04:05:42;6.57;;;5.40;;
12267;SDS011;6196;48.398;11.736;2023-09-07T04:08:09;6.37;;;5.60;;
12267;SDS011;6196;48.398;11.736;2023-09-07T04:10:37;5.30;;;4.77;;
12267;SDS011;6196;48.398;11.736;2023-09-07T04:13:04;6.77;;;4.97;;
12267;SDS011;6196;48.398;11.736;2023-09-07T04:15:42;6.50;;;4.90;;
12267;SDS011;6196;48.398;11.736;2023-09-07T04:18:11;5.60;;;5.20;;
12267;SDS011;6196;48.398;11.736;2023-09-07T04:20:39;6.13;;;5.57;;
12267;SDS011;6196;48.398;11.736;2023-09-07T04:23:06;5.90;;;5.40;;
12267;SDS011;6196;48.398;11.736;2023-09-07T04:25:33;5.87;;;5.33;;
12267;SDS011;6196;48.398;11.736;2023-09-07T04:28:00;6.40;;;5.80;;
12267;SDS011;6196;48.398;11.736;2023-09-07T04:30:27;5.57;;;5.13;;
12267;SDS011;6196;48.398;11.736;2023-09-07T04:32:54;5.57;;;5.00;;
12267;SDS011;6196;48.398;11.736;2023-09-07T04:35:23;6.60;;;5.17;;
12267;SDS011;6196;48.398;11.736;2023-09-07T04:37:56;6.33;;;5.43;;
12267;SDS011;6196;48.398;11.736;2023-09-07T04:40:24;6.57;;;5.60;;
12267;SDS011;6196;48.398;11.736;2023-09-07T04:42:51;5.93;;;5.23;;
12267;SDS011;6196;48.398;11.736;2023-09-07T04:45:18;6.57;;;5.40;;
12267;SDS011;6196;48.398;11.736;2023-09-07T04:47:45;6.17;;;5.47;;
12267;SDS011;6196;48.398;11.736;2023-09-07T04:50:12;6.20;;;5.50;;
12267;SDS011;6196;48.398;11.736;2023-09-07T04:52:40;6.07;;;5.13;;
12267;SDS011;6196;48.398;11.736;2023-09-07T04:55:07;5.60;;;5.10;;
12267;SDS011;6196;48.398;11.736;2023-09-07T04:57:35;5.80;;;5.30;;
12267;SDS011;6196;48.398;11.736;2023-09-07T05:00:03;5.83;;;5.33;;
12267;SDS011;6196;48.398;11.736;2023-09-07T05:02:32;7.00;;;5.80;;
12267;SDS011;6196;48.398;11.736;2023-09-07T05:05:04;5.90;;;5.30;;
12267;SDS011;6196;48.398;11.736;2023-09-07T05:07:32;6.93;;;5.47;;
12267;SDS011;6196;48.398;11.736;2023-09-07T05:09:59;5.90;;;5.40;;
12267;SDS011;6196;48.398;11.736;2023-09-07T05:12:26;7.73;;;5.50;;
12267;SDS011;6196;48.398;11.736;2023-09-07T05:14:53;6.17;;;5.27;;
12267;SDS011;6196;48.398;11.736;2023-09-07T05:17:20;5.83;;;5.30;;
12267;SDS011;6196;48.398;11.736;2023-09-07T05:19:47;5.33;;;4.87;;
12267;SDS011;6196;48.398;11.736;2023-09-07T05:22:15;5.77;;;5.13;;
12267;SDS011;6196;48.398;11.736;2023-09-07T05:24:42;6.70;;;5.67;;
12267;SDS011;6196;48.398;11.736;2023-09-07T05:27:11;5.70;;;5.17;;
12267;SDS011;6196;48.398;11.736;2023-09-07T05:29:41;5.83;;;5.33;;
12267;SDS011;6196;48.398;11.736;2023-09-07T05:32:09;7.70;;;6.10;;
12267;SDS011;6196;48.398;11.736;2023-09-07T05:34:36;6.03;;;5.43;;
12267;SDS011;6196;48.398;11.736;2023-09-07T05:37:03;6.03;;;5.40;;
12267;SDS011;6196;48.398;11.736;2023-09-07T05:39:30;6.17;;;5.57;;
12267;SDS011;6196;48.398;11.736;2023-09-07T05:41:57;5.90;;;5.30;;
12267;SDS011;6196;48.398;11.736;2023-09-07T05:44:24;5.80;;;5.17;;
12267;SDS011;6196;48.398;11.736;2023-09-07T05:46:51;5.90;;;5.40;;
12267;SDS011;6196;48.398;11.736;2023-09-07T05:49:18;5.50;;;4.83;;
12267;SDS011;6196;48.398;11.736;2023-09-07T05:51:45;5.20;;;4.80;;
12267;SDS011;6196;48.398;11.736;2023-09-07T05:54:13;5.30;;;4.80;;
12267;SDS011;6196;48.398;11.736;2023-09-07T05:56:40;7.80;;;5.47;;
12267;SDS011;6196;48.398;11.736;2023-09-07T05:59:06;5.37;;;4.87;;
12267;SDS011;6196;48.398;11.736;2023-09-07T06:01:33;5.80;;;5.03;;
12267;SDS011;6196;48.398;11.736;2023-09-07T06:04:01;6.50;;;5.20;;
12267;SDS011;6196;48.398;11.736;2023-09-07T06:06:28;5.47;;;4.57;;
12267;SDS011;6196;48.398;11.736;2023-09-07T06:08:55;5.20;;;4.70;;
12267;SDS011;6196;48.398;11.736;2023-09-07T06:11:23;5.50;;;4.73;;
12267;SDS011;6196;48.398;11.736;2023-09-07T06:13:50;5.80;;;4.90;;
12267;SDS011;6196;48.398;11.736;2023-09-07T06:16:17;5.83;;;4.90;;
12267;SDS011;6196;48.398;11.736;2023-09-07T06:18:44;6.27;;;5.20;;
12267;SDS011;6196;48.398;11.736;2023-09-07T06:21:12;6.13;;;5.10;;
12267;SDS011;6196;48.398;11.736;2023-09-07T06:23:39;5.53;;;5.00;;
12267;SDS011;6196;48.398;11.736;2023-09-07T06:26:06;6.57;;;5.40;;
12267;SDS011;6196;48.398;11.736;2023-09-07T06:28:33;5.73;;;5.07;;
12267;SDS011;6196;48.398;11.736;2023-09-07T06:31:00;6.57;;;5.70;;
12267;SDS011;6196;48.398;11.736;2023-09-07T06:33:27;6.23;;;5.20;;
12267;SDS011;6196;48.398;11.736;2023-09-07T06:35:54;8.43;;;5.30;;
12267;SDS011;6196;48.398;11.736;2023-09-07T06:38:23;5.63;;;5.07;;
12267;SDS011;6196;48.398;11.736;2023-09-07T06:40:50;5.73;;;5.10;;
12267;SDS011;6196;48.398;11.736;2023-09-07T06:43:17;5.80;;;4.77;;
12267;SDS011;6196;48.398;11.736;2023-09-07T06:45:44;8.30;;;6.00;;
12267;SDS011;6196;48.398;11.736;2023-09-07T06:48:11;5.83;;;5.27;;
12267;SDS011;6196;48.398;11.736;2023-09-07T06:50:39;7.87;;;5.30;;
12267;SDS011;6196;48.398;11.736;2023-09-07T06:53:06;5.43;;;4.93;;
12267;SDS011;6196;48.398;11.736;2023-09-07T06:55:33;5.57;;;5.07;;
12267;SDS011;6196;48.398;11.736;2023-09-07T06:58:00;6.00;;;5.40;;
12267;SDS011;6196;48.398;11.736;2023-09-07T07:00:27;5.40;;;4.90;;
12267;SDS011;6196;48.398;11.736;2023-09-07T07:02:54;6.27;;;5.57;;
12267;SDS011;6196;48.398;11.736;2023-09-07T07:05:24;5.87;;;5.37;;
12267;SDS011;6196;48.398;11.736;2023-09-07T07:07:54;6.10;;;5.50;;
12267;SDS011;6196;48.398;11.736;2023-09-07T07:10:22;6.30;;;5.57;;
12267;SDS011;6196;48.398;11.736;2023-09-07T07:12:48;5.67;;;5.17;;
12267;SDS011;6196;48.398;11.736;2023-09-07T07:15:15;7.53;;;5.70;;
12267;SDS011;6196;48.398;11.736;2023-09-07T07:17:42;6.23;;;5.63;;
12267;SDS011;6196;48.398;11.736;2023-09-07T07:20:09;6.23;;;5.07;;
12267;SDS011;6196;48.398;11.736;2023-09-07T07:22:37;6.97;;;5.43;;
12267;SDS011;6196;48.398;11.736;2023-09-07T07:25:04;7.37;;;5.10;;
12267;SDS011;6196;48.398;11.736;2023-09-07T07:27:32;8.60;;;5.53;;
12267;SDS011;6196;48.398;11.736;2023-09-07T07:29:59;8.10;;;5.97;;
12267;SDS011;6196;48.398;11.736;2023-09-07T07:32:26;5.90;;;5.40;;
12267;SDS011;6196;48.398;11.736;2023-09-07T07:34:53;9.47;;;5.80;;
12267;SDS011;6196;48.398;11.736;2023-09-07T07:37:20;6.20;;;5.50;;
12267;SDS011;6196;48.398;11.736;2023-09-07T07:39:47;8.17;;;5.70;;
12267;SDS011;6196;48.398;11.736;2023-09-07T07:42:14;7.17;;;5.17;;
12267;SDS011;6196;48.398;11.736;2023-09-07T07:44:41;10.27;;;6.03;;
12267;SDS011;6196;48.398;11.736;2023-09-07T07:47:08;8.20;;;5.73;;
12267;SDS011;6196;48.398;11.736;2023-09-07T07:49:35;7.20;;;5.27;;
12267;SDS011;6196;48.398;11.736;2023-09-07T07:52:03;6.73;;;5.43;;
12267;SDS011;6196;48.398;11.736;2023-09-07T07:54:32;8.83;;;5.63;;
12267;SDS011;6196;48.398;11.736;2023-09-07T07:57:00;6.10;;;5.53;;
12267;SDS011;6196;48.398;11.736;2023-09-07T07:59:27;5.43;;;4.93;;
12267;SDS011;6196;48.398;11.736;2023-09-07T08:01:54;7.30;;;5.33;;
12267;SDS011;6196;48.398;11.736;2023-09-07T08:04:21;5.90;;;5.30;;
12267;SDS011;6196;48.398;11.736;2023-09-07T08:06:48;5.50;;;5.00;;
12267;SDS011;6196;48.398;11.736;2023-09-07T08:09:15;6.13;;;5.63;;
12267;SDS011;6196;48.398;11.736;2023-09-07T08:11:42;7.50;;;5.70;;
12267;SDS011;6196;48.398;11.736;2023-09-07T08:14:09;6.17;;;5.13;;
12267;SDS011;6196;48.398;11.736;2023-09-07T08:16:37;5.37;;;4.87;;
12267;SDS011;6196;48.398;11.736;2023-09-07T08:19:04;6.27;;;5.30;;
12267;SDS011;6196;48.398;11.736;2023-09-07T08:21:31;4.80;;;4.40;;
12267;SDS011;6196;48.398;11.736;2023-09-07T08:23:58;5.37;;;4.87;;
12267;SDS011;6196;48.398;11.736;2023-09-07T08:26:26;5.50;;;4.87;;
12267;SDS011;6196;48.398;11.736;2023-09-07T08:28:53;6.20;;;4.70;;
12267;SDS011;6196;48.398;11.736;2023-09-07T08:31:20;5.77;;;4.83;;
12267;SDS011;6196;48.398;11.736;2023-09-07T08:33:49;4.73;;;4.30;;
12267;SDS011;6196;48.398;11.736;2023-09-07T08:36:21;5.23;;;4.33;;
12267;SDS011;6196;48.398;11.736;2023-09-07T08:38:50;7.93;;;4.30;;
12267;SDS011;6196;48.398;11.736;2023-09-07T08:41:20;5.63;;;4.40;;
12267;SDS011;6196;48.398;11.736;2023-09-07T08:43:48;6.37;;;4.53;;
12267;SDS011;6196;48.398;11.736;2023-09-07T08:46:18;5.60;;;5.00;;
12267;SDS011;6196;48.398;11.736;2023-09-07T08:48:49;5.47;;;4.97;;
12267;SDS011;6196;48.398;11.736;2023-09-07T08:51:18;7.03;;;5.13;;
12267;SDS011;6196;48.398;11.736;2023-09-07T08:53:46;5.43;;;4.47;;
12267;SDS011;6196;48.398;11.736;2023-09-07T08:56:13;6.97;;;5.43;;
12267;SDS011;6196;48.398;11.736;2023-09-07T08:58:41;6.33;;;5.73;;
12267;SDS011;6196;48.398;11.736;2023-09-07T09:01:11;6.83;;;5.03;;
12267;SDS011;6196;48.398;11.736;2023-09-07T09:03:39;5.67;;;5.17;;
12267;SDS011;6196;48.398;11.736;2023-09-07T09:06:08;6.27;;;5.10;;
12267;SDS011;6196;48.398;11.736;2023-09-07T09:11:38;5.43;;;4.93;;
12267;SDS011;6196;48.398;11.736;2023-09-07T09:14:05;5.83;;;4.67;;
12267;SDS011;6196;48.398;11.736;2023-09-07T09:16:33;5.47;;;4.87;;
12267;SDS011;6196;48.398;11.736;2023-09-07T09:18:59;6.10;;;4.60;;
12267;SDS011;6196;48.398;11.736;2023-09-07T09:21:27;5.07;;;4.57;;
12267;SDS011;6196;48.398;11.736;2023-09-07T09:23:56;5.97;;;4.93;;
12267;SDS011;6196;48.398;11.736;2023-09-07T09:26:23;6.17;;;4.97;;
12267;SDS011;6196;48.398;11.736;2023-09-07T09:28:55;5.77;;;5.27;;
12267;SDS011;6196;48.398;11.736;2023-09-07T09:31:23;5.47;;;5.07;;
12267;SDS011;6196;48.398;11.736;2023-09-07T09:33:51;5.97;;;4.70;;
12267;SDS011;6196;48.398;11.736;2023-09-07T09:36:18;5.33;;;4.93;;
12267;SDS011;6196;48.398;11.736;2023-09-07T09:38:50;5.40;;;4.90;;
12267;SDS011;6196;48.398;11.736;2023-09-07T09:41:19;5.73;;;5.23;;
12267;SDS011;6196;48.398;11.736;2023-09-07T09:43:49;5.73;;;4.90;;
12267;SDS011;6196;48.398;11.736;2023-09-07T09:46:18;7.50;;;5.10;;
12267;SDS011;6196;48.398;11.736;2023-09-07T09:48:46;4.87;;;4.47;;
12267;SDS011;6196;48.398;11.736;2023-09-07T09:51:15;5.27;;;4.50;;
12267;SDS011;6196;48.398;11.736;2023-09-07T09:53:42;6.47;;;4.20;;
12267;SDS011;6196;48.398;11.736;2023-09-07T09:56:10;7.20;;;4.50;;
12267;SDS011;6196;48.398;11.736;2023-09-07T09:58:39;5.40;;;4.50;;
12267;SDS011;6196;48.398;11.736;2023-09-07T10:01:06;5.17;;;4.67;;
12267;SDS011;6196;48.398;11.736;2023-09-07T10:03:42;6.47;;;4.80;;
12267;SDS011;6196;48.398;11.736;2023-09-07T10:06:22;5.43;;;4.93;;
12267;SDS011;6196;48.398;11.736;2023-09-07T10:08:58;5.70;;;4.50;;
12267;SDS011;6196;48.398;11.736;2023-09-07T10:11:37;5.03;;;4.60;;
12267;SDS011;6196;48.398;11.736;2023-09-07T10:14:06;4.80;;;3.97;;
12267;SDS011;6196;48.398;11.736;2023-09-07T10:16:44;4.93;;;4.30;;
12267;SDS011;6196;48.398;11.736;2023-09-07T10:19:21;4.73;;;4.33;;
12267;SDS011;6196;48.398;11.736;2023-09-07T10:21:50;4.50;;;4.10;;
12267;SDS011;6196;48.398;11.736;2023-09-07T10:24:25;4.43;;;4.03;;
12267;SDS011;6196;48.398;11.736;2023-09-07T10:29:39;6.23;;;3.70;;
12267;SDS011;6196;48.398;11.736;2023-09-07T10:32:22;4.37;;;3.90;;
12267;SDS011;6196;48.398;11.736;2023-09-07T10:34:50;4.43;;;4.03;;
12267;SDS011;6196;48.398;11.736;2023-09-07T10:37:17;3.87;;;3.53;;
12267;SDS011;6196;48.398;11.736;2023-09-07T10:39:44;5.27;;;3.90;;
12267;SDS011;6196;48.398;11.736;2023-09-07T10:44:52;3.97;;;3.67;;
12267;SDS011;6196;48.398;11.736;2023-09-07T10:47:20;4.87;;;3.90;;
12267;SDS011;6196;48.398;11.736;2023-09-07T10:49:47;4.30;;;3.90;;
12267;SDS011;6196;48.398;11.736;2023-09-07T10:52:15;4.77;;;4.07;;
12267;SDS011;6196;48.398;11.736;2023-09-07T10:54:42;3.90;;;3.60;;
12267;SDS011;6196;48.398;11.736;2023-09-07T10:57:10;5.22;;;3.88;;
12267;SDS011;6196;48.398;11.736;2023-09-07T10:59:44;4.33;;;3.93;;
12267;SDS011;6196;48.398;11.736;2023-09-07T11:02:12;4.55;;;3.78;;
12267;SDS011;6196;48.398;11.736;2023-09-07T11:04:42;4.25;;;3.95;;
12267;SDS011;6196;48.398;11.736;2023-09-07T11:07:09;5.45;;;3.88;;
12267;SDS011;6196;48.398;11.736;2023-09-07T11:09:42;3.97;;;3.67;;
12267;SDS011;6196;48.398;11.736;2023-09-07T11:12:13;6.13;;;4.00;;
12267;SDS011;6196;48.398;11.736;2023-09-07T11:14:43;4.65;;;3.80;;
12267;SDS011;6196;48.398;11.736;2023-09-07T11:17:15;4.80;;;3.53;;
12267;SDS011;6196;48.398;11.736;2023-09-07T11:19:42;4.97;;;4.13;;
12267;SDS011;6196;48.398;11.736;2023-09-07T11:22:10;5.38;;;3.72;;
12267;SDS011;6196;48.398;11.736;2023-09-07T11:24:37;4.72;;;4.03;;
12267;SDS011;6196;48.398;11.736;2023-09-07T11:27:04;7.80;;;3.97;;
12267;SDS011;6196;48.398;11.736;2023-09-07T11:29:31;5.15;;;3.80;;
12267;SDS011;6196;48.398;11.736;2023-09-07T11:32:05;4.80;;;3.90;;
12267;SDS011;6196;48.398;11.736;2023-09-07T11:34:52;4.55;;;4.13;;
12267;SDS011;6196;48.398;11.736;2023-09-07T11:37:24;4.15;;;3.85;;
12267;SDS011;6196;48.398;11.736;2023-09-07T11:39:52;6.68;;;3.75;;
12267;SDS011;6196;48.398;11.736;2023-09-07T11:42:19;3.50;;;3.20;;
12267;SDS011;6196;48.398;11.736;2023-09-07T11:44:46;4.13;;;3.72;;
12267;SDS011;6196;48.398;11.736;2023-09-07T11:47:13;4.13;;;3.72;;
12267;SDS011;6196;48.398;11.736;2023-09-07T11:49:40;3.75;;;3.40;;
12267;SDS011;6196;48.398;11.736;2023-09-07T11:52:07;4.75;;;4.00;;
12267;SDS011;6196;48.398;11.736;2023-09-07T11:54:34;4.65;;;3.63;;
12267;SDS011;6196;48.398;11.736;2023-09-07T11:57:01;4.40;;;3.60;;
12267;SDS011;6196;48.398;11.736;2023-09-07T11:59:29;4.53;;;3.20;;
12267;SDS011;6196;48.398;11.736;2023-09-07T12:02:09;3.47;;;3.13;;
12267;SDS011;6196;48.398;11.736;2023-09-07T12:04:41;5.13;;;3.50;;
12267;SDS011;6196;48.398;11.736;2023-09-07T12:07:08;4.05;;;3.38;;
12267;SDS011;6196;48.398;11.736;2023-09-07T12:09:36;3.60;;;3.33;;
12267;SDS011;6196;48.398;11.736;2023-09-07T12:12:03;4.30;;;3.83;;
12267;SDS011;6196;48.398;11.736;2023-09-07T12:14:30;4.72;;;3.50;;
12267;SDS011;6196;48.398;11.736;2023-09-07T12:16:57;3.95;;;3.33;;
12267;SDS011;6196;48.398;11.736;2023-09-07T12:19:24;5.13;;;3.45;;
12267;SDS011;6196;48.398;11.736;2023-09-07T12:21:52;3.50;;;3.20;;
12267;SDS011;6196;48.398;11.736;2023-09-07T12:24:19;3.75;;;3.25;;
12267;SDS011;6196;48.398;11.736;2023-09-07T12:26:46;4.55;;;3.15;;
12267;SDS011;6196;48.398;11.736;2023-09-07T12:29:13;3.88;;;3.58;;
12267;SDS011;6196;48.398;11.736;2023-09-07T12:31:40;4.50;;;3.35;;
12267;SDS011;6196;48.398;11.736;2023-09-07T12:34:07;4.05;;;3.10;;
12267;SDS011;6196;48.398;11.736;2023-09-07T12:36:34;3.67;;;3.30;;
12267;SDS011;6196;48.398;11.736;2023-09-07T12:39:01;5.20;;;3.35;;
12267;SDS011;6196;48.398;11.736;2023-09-07T12:41:29;4.20;;;3.42;;
12267;SDS011;6196;48.398;11.736;2023-09-07T12:43:59;4.50;;;3.60;;
12267;SDS011;6196;48.398;11.736;2023-09-07T12:46:26;4.07;;;3.58;;
12267;SDS011;6196;48.398;11.736;2023-09-07T12:48:53;4.97;;;3.53;;
12267;SDS011;6196;48.398;11.736;2023-09-07T12:51:20;4.35;;;3.47;;
12267;SDS011;6196;48.398;11.736;2023-09-07T12:53:47;5.35;;;3.75;;
12267;SDS011;6196;48.398;11.736;2023-09-07T12:56:14;4.30;;;3.63;;
12267;SDS011;6196;48.398;11.736;2023-09-07T12:58:42;3.75;;;3.33;;
12267;SDS011;6196;48.398;11.736;2023-09-07T13:01:08;6.28;;;3.50;;
12267;SDS011;6196;48.398;11.736;2023-09-07T13:03:39;5.65;;;3.60;;
12267;SDS011;6196;48.398;11.736;2023-09-07T13:06:06;4.63;;;3.55;;
12267;SDS011;6196;48.398;11.736;2023-09-07T13:08:33;4.00;;;3.50;;
12267;SDS011;6196;48.398;11.736;2023-09-07T13:11:02;5.13;;;3.38;;
12267;SDS011;6196;48.398;11.736;2023-09-07T13:13:29;6.30;;;3.13;;
12267;SDS011;6196;48.398;11.736;2023-09-07T13:15:56;4.22;;;3.45;;
12267;SDS011;6196;48.398;11.736;2023-09-07T13:18:24;4.13;;;3.83;;
12267;SDS011;6196;48.398;11.736;2023-09-07T13:20:51;4.43;;;3.47;;
12267;SDS011;6196;48.398;11.736;2023-09-07T13:23:21;4.45;;;3.70;;
12267;SDS011;6196;48.398;11.736;2023-09-07T13:25:48;5.93;;;3.60;;
12267;SDS011;6196;48.398;11.736;2023-09-07T13:28:15;3.83;;;3.53;;
12267;SDS011;6196;48.398;11.736;2023-09-07T13:30:42;4.53;;;3.90;;
12267;SDS011;6196;48.398;11.736;2023-09-07T13:33:09;3.60;;;3.30;;
12267;SDS011;6196;48.398;11.736;2023-09-07T13:35:36;3.88;;;3.38;;
12267;SDS011;6196;48.398;11.736;2023-09-07T13:38:03;4.30;;;3.45;;
12267;SDS011;6196;48.398;11.736;2023-09-07T13:40:30;4.18;;;3.35;;
12267;SDS011;6196;48.398;11.736;2023-09-07T13:42:57;5.53;;;3.70;;
12267;SDS011;6196;48.398;11.736;2023-09-07T13:45:24;3.97;;;3.20;;
12267;SDS011;6196;48.398;11.736;2023-09-07T13:47:51;3.88;;;3.58;;
12267;SDS011;6196;48.398;11.736;2023-09-07T13:50:18;5.07;;;3.55;;
12267;SDS011;6196;48.398;11.736;2023-09-07T13:52:45;6.05;;;3.60;;
12267;SDS011;6196;48.398;11.736;2023-09-07T13:55:12;4.18;;;3.78;;
12267;SDS011;6196;48.398;11.736;2023-09-07T13:57:39;3.90;;;3.50;;
12267;SDS011;6196;48.398;11.736;2023-09-07T14:00:06;3.80;;;3.50;;
12267;SDS011;6196;48.398;11.736;2023-09-07T14:02:34;3.90;;;3.53;;
12267;SDS011;6196;48.398;11.736;2023-09-07T14:05:01;6.85;;;3.60;;
12267;SDS011;6196;48.398;11.736;2023-09-07T14:07:29;3.50;;;3.13;;
12267;SDS011;6196;48.398;11.736;2023-09-07T14:09:56;4.32;;;3.50;;
12267;SDS011;6196;48.398;11.736;2023-09-07T14:12:23;3.80;;;3.42;;
12267;SDS011;6196;48.398;11.736;2023-09-07T14:14:49;4.22;;;3.42;;
12267;SDS011;6196;48.398;11.736;2023-09-07T14:17:16;6.32;;;3.75;;
12267;SDS011;6196;48.398;11.736;2023-09-07T14:19:43;5.13;;;3.45;;
12267;SDS011;6196;48.398;11.736;2023-09-07T14:22:11;4.20;;;3.80;;
12267;SDS011;6196;48.398;11.736;2023-09-07T14:24:39;4.30;;;3.90;;
12267;SDS011;6196;48.398;11.736;2023-09-07T14:27:06;5.15;;;3.70;;
12267;SDS011;6196;48.398;11.736;2023-09-07T14:29:33;4.00;;;3.60;;
12267;SDS011;6196;48.398;11.736;2023-09-07T14:32:02;4.18;;;3.50;;
12267;SDS011;6196;48.398;11.736;2023-09-07T14:34:30;6.25;;;3.42;;
12267;SDS011;6196;48.398;11.736;2023-09-07T14:36:57;5.50;;;3.53;;
12267;SDS011;6196;48.398;11.736;2023-09-07T14:39:24;4.60;;;3.53;;
12267;SDS011;6196;48.398;11.736;2023-09-07T14:41:51;5.45;;;3.63;;
12267;SDS011;6196;48.398;11.736;2023-09-07T14:44:21;5.70;;;3.40;;
12267;SDS011;6196;48.398;11.736;2023-09-07T14:46:48;3.97;;;3.58;;
12267;SDS011;6196;48.398;11.736;2023-09-07T14:49:16;3.92;;;3.47;;
12267;SDS011;6196;48.398;11.736;2023-09-07T14:51:44;5.15;;;3.15;;
12267;SDS011;6196;48.398;11.736;2023-09-07T14:54:14;7.10;;;3.53;;
12267;SDS011;6196;48.398;11.736;2023-09-07T14:56:41;3.70;;;3.28;;
12267;SDS011;6196;48.398;11.736;2023-09-07T14:59:10;5.95;;;3.33;;
12267;SDS011;6196;48.398;11.736;2023-09-07T15:01:38;3.78;;;3.38;;